Time;durP1;ratioP1;P1;durP2;ratioP2;P2;SDS_P1;SDS_P2;PMS_P1;PMS_P2;Temp;Humidity;BMP_temperature;BMP_pressure;BME280_temperature;BME280_humidity;BME280_pressure;Samples;Min_cycle;Max_cycle;Signal;HPM_P1;HPM_P2
2023/01/24 00:01:01;;;;;;;;;32.50;29.00;;;;;3.58;100.00;102936.50;5084149;27;45433;-81
2023/01/24 00:03:26;;;;;;;;;29.25;24.25;;;;;3.53;100.00;102944.06;5060438;28;45376;-81
2023/01/24 00:05:52;;;;;;;;;45.50;35.25;;;;;3.50;100.00;102937.03;5077920;28;45422;-81
2023/01/24 00:08:19;;;;;;;;;38.50;30.50;;;;;3.52;100.00;102934.22;5081549;28;45337;-80
2023/01/24 00:10:46;;;;;;;;;35.50;32.50;;;;;3.48;100.00;102936.25;5070423;28;45582;-80
2023/01/24 00:13:13;;;;;;;;;44.50;34.25;;;;;3.46;100.00;102954.50;5066618;28;44816;-80
2023/01/24 00:15:39;;;;;;;;;30.25;27.50;;;;;3.43;100.00;102942.97;5080771;28;46246;-80
2023/01/24 00:18:05;;;;;;;;;32.50;25.25;;;;;3.35;100.00;102941.69;5079195;28;45466;-81
2023/01/24 00:20:30;;;;;;;;;37.25;32.00;;;;;3.43;100.00;102942.97;5061422;28;45731;-81
2023/01/24 00:22:56;;;;;;;;;38.50;30.75;;;;;3.38;100.00;102937.03;5077406;28;45595;-80
2023/01/24 00:25:22;;;;;;;;;32.00;25.00;;;;;3.36;100.00;102929.84;5074400;28;47001;-79
2023/01/24 00:27:47;;;;;;;;;41.00;34.25;;;;;3.36;100.00;102939.84;5083331;27;45353;-79
2023/01/24 00:30:13;;;;;;;;;41.50;26.00;;;;;3.40;100.00;102929.63;5071311;28;45419;-79
2023/01/24 00:32:38;;;;;;;;;50.50;36.75;;;;;3.35;100.00;102935.38;5083927;27;45639;-80
2023/01/24 00:35:05;;;;;;;;;34.50;28.50;;;;;3.33;100.00;102938.22;5069355;28;47068;-79
2023/01/24 00:37:30;;;;;;;;;41.50;34.75;;;;;3.34;100.00;102923.69;5079848;28;45792;-79
2023/01/24 00:39:56;;;;;;;;;47.75;33.00;;;;;3.38;100.00;102928.91;5087498;27;45429;-78
2023/01/24 00:42:21;;;;;;;;;40.25;34.75;;;;;3.35;100.00;102935.38;5062475;28;45945;-80
2023/01/24 00:44:47;;;;;;;;;45.75;36.00;;;;;3.39;100.00;102930.63;5078957;27;45413;-78
2023/01/24 00:47:12;;;;;;;;;37.50;30.25;;;;;3.33;100.00;102926.50;5073144;28;45843;-79
2023/01/24 00:49:38;;;;;;;;;46.75;35.25;;;;;3.32;100.00;102936.50;5085288;27;45433;-79
2023/01/24 00:52:03;;;;;;;;;37.00;30.75;;;;;3.31;100.00;102932.03;5077696;27;45465;-79
2023/01/24 00:54:29;;;;;;;;;40.25;29.25;;;;;3.31;100.00;102931.19;5073824;27;45757;-78
2023/01/24 00:56:54;;;;;;;;;42.75;36.75;;;;;3.30;100.00;102934.84;5077342;27;45775;-79
2023/01/24 00:59:19;;;;;;;;;35.25;24.25;;;;;3.32;100.00;102931.06;5074809;28;45859;-79
2023/01/24 01:01:45;;;;;;;;;44.00;33.50;;;;;3.35;100.00;102941.69;5057464;28;45756;-80
2023/01/24 01:04:10;;;;;;;;;47.00;36.50;;;;;3.34;100.00;102936.38;5076949;28;45826;-79
2023/01/24 01:06:36;;;;;;;;;43.00;32.00;;;;;3.28;100.00;102924.13;5053711;28;45776;-80
2023/01/24 01:09:03;;;;;;;;;46.75;36.00;;;;;3.35;100.00;102938.09;5072105;27;45519;-79
2023/01/24 01:11:28;;;;;;;;;48.50;37.75;;;;;3.33;100.00;102935.50;5062666;27;45842;-79
2023/01/24 01:13:55;;;;;;;;;42.75;37.25;;;;;3.30;100.00;102924.88;5085282;27;46526;-79
2023/01/24 01:16:21;;;;;;;;;46.25;35.50;;;;;3.35;100.00;102932.69;5063834;27;45783;-79
2023/01/24 01:18:47;;;;;;;;;49.50;36.75;;;;;3.26;100.00;102915.19;5087019;27;45778;-80
2023/01/24 01:21:15;;;;;;;;;31.50;28.75;;;;;3.34;100.00;102930.97;5076276;27;45493;-79
2023/01/24 01:23:41;;;;;;;;;46.75;36.25;;;;;3.38;100.00;102946.03;5069714;28;47362;-80
2023/01/24 01:26:09;;;;;;;;;46.25;35.50;;;;;3.36;100.00;102940.69;5073851;27;45484;-80
2023/01/24 01:28:35;;;;;;;;;38.75;30.75;;;;;3.36;100.00;102954.25;5073207;27;45518;-79
2023/01/24 01:31:02;;;;;;;;;52.75;36.25;;;;;3.33;100.00;102940.91;5079590;27;45540;-80
2023/01/24 01:33:27;;;;;;;;;41.50;30.75;;;;;3.38;100.00;102956.00;5080282;27;46673;-79
2023/01/24 01:35:53;;;;;;;;;43.75;37.50;;;;;3.29;100.00;102941.25;5071436;27;45770;-80
2023/01/24 01:38:20;;;;;;;;;37.00;31.50;;;;;3.32;100.00;102951.88;5051569;28;45752;-80
2023/01/24 01:40:45;;;;;;;;;42.75;36.25;;;;;3.36;100.00;102954.25;5070677;27;45719;-79
2023/01/24 01:43:20;;;;;;;;;30.00;18.50;;;;;3.35;100.00;102955.25;5074601;28;45377;-78
2023/01/24 01:45:47;;;;;;;;;39.75;30.50;;;;;3.31;100.00;102948.31;5055735;28;45661;-79
2023/01/24 01:48:15;;;;;;;;;43.25;29.75;;;;;3.31;100.00;102964.56;5076002;28;45510;-78
2023/01/24 01:50:46;;;;;;;;;35.00;28.25;;;;;3.26;100.00;102953.16;5078293;27;45751;-79
2023/01/24 01:53:12;;;;;;;;;36.75;29.00;;;;;3.15;100.00;102939.50;5075911;28;45684;-79
2023/01/24 01:55:43;;;;;;;;;45.50;35.75;;;;;3.25;100.00;102956.88;5074253;27;45399;-78
2023/01/24 01:58:09;;;;;;;;;49.25;38.75;;;;;3.25;100.00;102962.28;5079885;27;45497;-79
2023/01/24 02:00:34;;;;;;;;;48.25;35.00;;;;;3.22;100.00;102967.03;5078816;27;45716;-79
2023/01/24 02:05:59;;;;;;;;;40.25;36.00;;;;;3.23;100.00;102966.94;5081109;27;45481;-79
2023/01/24 02:08:25;;;;;;;;;50.75;35.25;;;;;3.23;100.00;102972.34;5084801;27;45774;-79
2023/01/24 02:13:43;;;;;;;;;40.75;30.75;;;;;3.18;100.00;102972.69;5067454;28;45356;-80
2023/01/24 02:16:10;;;;;;;;;38.00;31.50;;;;;3.14;100.00;102970.28;5076724;28;45717;-79
2023/01/24 02:18:38;;;;;;;;;42.50;30.25;;;;;3.04;100.00;102953.81;5070034;28;45702;-79
2023/01/24 02:21:07;;;;;;;;;38.50;33.25;;;;;3.00;100.00;102947.69;5076519;27;45386;-79
2023/01/24 02:23:42;;;;;;;;;35.25;27.25;;;;;3.03;100.00;102973.72;5066064;28;47249;-79
2023/01/24 02:26:13;;;;;;;;;35.00;30.75;;;;;3.01;100.00;102975.69;5090239;27;45382;-80
2023/01/24 02:28:43;;;;;;;;;52.50;39.75;;;;;3.03;100.00;102972.88;5080643;28;45537;-80
2023/01/24 02:31:09;;;;;;;;;46.50;36.75;;;;;3.04;100.00;102974.59;5083806;27;45351;-78
2023/01/24 02:33:34;;;;;;;;;48.25;31.50;;;;;3.00;100.00;102969.38;5083419;27;45554;-79
2023/01/24 02:36:18;;;;;;;;;32.50;28.00;;;;;2.96;100.00;102969.69;5077156;27;45782;-80
2023/01/24 02:38:49;;;;;;;;;35.00;26.50;;;;;2.95;100.00;102971.56;5086477;27;45428;-79
2023/01/24 02:41:19;;;;;;;;;43.75;36.00;;;;;2.93;100.00;102961.78;5085289;27;45427;-79
2023/01/24 02:43:48;;;;;;;;;38.75;33.50;;;;;2.92;100.00;102969.06;5077187;28;46223;-78
2023/01/24 02:46:14;;;;;;;;;34.75;30.25;;;;;2.90;100.00;102965.56;5076682;27;45785;-78
2023/01/24 02:48:39;;;;;;;;;46.25;33.00;;;;;2.87;100.00;102965.75;5069975;28;45461;-79
2023/01/24 02:53:49;;;;;;;;;42.50;32.75;;;;;2.86;100.00;102964.03;5077858;27;45485;-78
2023/01/24 02:58:58;;;;;;;;;37.00;31.75;;;;;2.83;100.00;102969.69;5082172;27;45544;-79
2023/01/24 03:01:24;;;;;;;;;37.25;33.25;;;;;2.78;100.00;102958.25;5080892;27;45446;-80
2023/01/24 03:03:50;;;;;;;;;43.50;33.00;;;;;2.82;100.00;102962.50;5075030;28;47163;-79
2023/01/24 03:06:17;;;;;;;;;46.75;33.25;;;;;2.83;100.00;102967.81;5077021;28;45534;-79
2023/01/24 03:08:43;;;;;;;;;30.00;25.00;;;;;2.81;100.00;102963.47;5084330;27;45332;-79
2023/01/24 03:11:11;;;;;;;;;32.75;26.00;;;;;2.76;100.00;102961.06;5082745;27;45323;-79
2023/01/24 03:35:34;;;;;;;;;38.00;31.00;;;;;2.76;100.00;102955.66;5076839;27;45367;-78
2023/01/24 03:40:43;;;;;;;;;38.50;33.25;;;;;2.78;100.00;102961.81;5056317;28;45300;-80
2023/01/24 03:43:09;;;;;;;;;40.00;31.25;;;;;2.84;100.00;102957.84;5055296;28;45363;-79
2023/01/24 03:45:37;;;;;;;;;45.75;32.00;;;;;2.80;100.00;102940.06;5031371;28;48087;-78
2023/01/24 03:48:09;;;;;;;;;48.50;34.25;;;;;2.80;100.00;102967.19;5037645;28;45391;-79
2023/01/24 03:53:24;;;;;;;;;43.75;35.50;;;;;2.79;100.00;102960.88;5050425;28;45433;-77
2023/01/24 03:55:54;;;;;;;;;36.50;28.75;;;;;2.79;100.00;102965.44;5055420;28;46420;-78
2023/01/24 03:58:20;;;;;;;;;43.00;34.75;;;;;2.68;100.00;102933.63;5051267;28;45506;-77
2023/01/24 04:00:45;;;;;;;;;43.25;32.75;;;;;2.81;100.00;102953.53;5038922;28;45469;-80
2023/01/24 04:03:11;;;;;;;;;32.75;28.25;;;;;2.81;100.00;102953.53;5045573;28;45367;-80
2023/01/24 04:05:37;;;;;;;;;45.00;39.00;;;;;2.83;100.00;102958.84;5034314;28;45845;-81
2023/01/24 04:08:03;;;;;;;;;43.00;33.25;;;;;2.78;100.00;102958.25;5045414;28;45846;-81
2023/01/24 04:10:29;;;;;;;;;46.50;35.25;;;;;2.78;100.00;102952.84;5052823;28;45598;-80
2023/01/24 04:12:55;;;;;;;;;47.50;38.00;;;;;2.80;100.00;102950.91;5054526;28;46055;-80
2023/01/24 04:15:24;;;;;;;;;43.50;35.00;;;;;2.82;100.00;102948.97;5055295;28;46597;-80
2023/01/24 04:17:51;;;;;;;;;44.25;35.50;;;;;2.79;100.00;102958.16;5057095;28;45678;-80
2023/01/24 04:20:17;;;;;;;;;43.75;35.50;;;;;2.82;100.00;102955.22;5054570;28;45521;-79
2023/01/24 04:22:42;;;;;;;;;35.25;25.50;;;;;2.81;100.00;102963.47;5037315;28;47117;-79
2023/01/24 04:25:09;;;;;;;;;46.75;34.25;;;;;2.83;100.00;102950.72;5030493;28;47083;-78
2023/01/24 04:27:36;;;;;;;;;52.75;36.50;;;;;2.76;100.00;102942.09;5032745;28;45456;-79
2023/01/24 04:30:04;;;;;;;;;43.25;35.25;;;;;2.81;100.00;102952.63;5044862;28;45732;-78
2023/01/24 04:32:29;;;;;;;;;36.00;28.00;;;;;2.80;100.00;102961.75;5043144;28;45366;-78
2023/01/24 04:34:55;;;;;;;;;49.50;35.50;;;;;2.78;100.00;102958.25;5045053;28;45996;-80
2023/01/24 04:37:21;;;;;;;;;40.25;35.50;;;;;2.81;100.00;102958.03;5034389;28;45495;-79
2023/01/24 04:39:46;;;;;;;;;40.00;36.25;;;;;2.81;100.00;102956.22;5072822;27;45584;-79
2023/01/24 04:42:11;;;;;;;;;45.75;37.75;;;;;2.79;100.00;102955.44;5060167;28;46209;-80
2023/01/24 04:44:37;;;;;;;;;48.75;38.75;;;;;2.78;100.00;102945.56;5057423;28;46214;-78
2023/01/24 04:47:02;;;;;;;;;41.00;31.75;;;;;2.72;100.00;102945.13;5059705;27;45463;-79
2023/01/24 04:49:28;;;;;;;;;46.50;38.00;;;;;2.73;100.00;102965.84;5083273;27;45476;-80
2023/01/24 04:51:53;;;;;;;;;47.50;37.00;;;;;2.67;100.00;102955.41;5063838;27;45403;-79
2023/01/24 04:54:19;;;;;;;;;50.50;37.50;;;;;2.71;100.00;102965.06;5078361;27;46442;-78
2023/01/24 04:56:44;;;;;;;;;42.50;36.00;;;;;2.65;100.00;102966.34;5061771;27;45565;-79
2023/01/24 04:59:13;;;;;;;;;51.00;36.75;;;;;2.68;100.00;102965.25;5070539;28;45533;-79
2023/01/24 05:01:39;;;;;;;;;60.25;41.00;;;;;2.65;100.00;102971.78;5061012;28;46134;-78
2023/01/24 05:04:05;;;;;;;;;51.50;39.00;;;;;2.65;100.00;102964.50;5066098;28;46295;-78
2023/01/24 05:06:32;;;;;;;;;54.50;40.25;;;;;2.67;100.00;102982.50;5078085;27;45522;-82
2023/01/24 05:08:58;;;;;;;;;33.75;28.00;;;;;2.64;100.00;102979.00;5081279;27;45533;-79
2023/01/24 05:11:24;;;;;;;;;56.25;42.25;;;;;2.51;100.00;102967.25;5063143;27;45536;-78
2023/01/24 05:13:49;;;;;;;;;49.50;40.75;;;;;2.57;100.00;102979.53;5060255;28;48415;-79
2023/01/24 05:16:15;;;;;;;;;48.25;37.50;;;;;2.57;100.00;102993.94;5077386;27;45525;-79
2023/01/24 05:18:42;;;;;;;;;50.75;38.50;;;;;2.56;100.00;102992.22;5081858;27;45693;-79
2023/01/24 05:21:14;;;;;;;;;57.75;40.75;;;;;2.55;100.00;102987.75;5085432;27;45495;-79
2023/01/24 05:23:40;;;;;;;;;41.00;32.00;;;;;2.57;100.00;102988.50;5078734;27;45885;-79
2023/01/24 05:26:06;;;;;;;;;52.00;41.00;;;;;2.56;100.00;102986.78;5085357;27;45420;-79
2023/01/24 05:28:31;;;;;;;;;57.25;42.50;;;;;2.52;100.00;102989.81;5067521;28;45521;-78
2023/01/24 05:30:58;;;;;;;;;58.75;41.00;;;;;2.52;100.00;102992.50;5089375;27;45927;-80
2023/01/24 05:33:24;;;;;;;;;65.25;44.75;;;;;2.49;100.00;102973.75;5082658;28;45494;-79
2023/01/24 05:35:57;;;;;;;;;60.00;44.00;;;;;2.50;100.00;102979.06;5086275;28;44782;-81
2023/01/24 05:38:22;;;;;;;;;56.00;39.00;;;;;2.54;100.00;102980.59;5075711;27;45269;-80
2023/01/24 05:40:48;;;;;;;;;42.75;37.00;;;;;2.57;100.00;102993.06;5091566;27;45615;-78
2023/01/24 05:43:13;;;;;;;;;59.50;45.50;;;;;2.47;100.00;102971.16;5087949;28;45323;-78
2023/01/24 05:45:38;;;;;;;;;42.75;39.25;;;;;2.59;100.00;102986.59;5093196;27;45370;-80
2023/01/24 05:48:04;;;;;;;;;56.25;42.00;;;;;2.58;100.00;102990.25;5080689;28;45837;-79
2023/01/24 05:50:30;;;;;;;;;57.75;38.50;;;;;2.59;100.00;102992.00;5090522;27;44862;-80
2023/01/24 05:52:55;;;;;;;;;62.50;40.00;;;;;2.60;100.00;102996.44;5090170;28;46899;-79
2023/01/24 05:55:20;;;;;;;;;47.75;34.75;;;;;2.60;100.00;102993.72;5091450;27;45505;-78
2023/01/24 05:57:46;;;;;;;;;49.25;39.00;;;;;2.61;100.00;103000.88;5087200;27;44945;-80
2023/01/24 06:00:12;;;;;;;;;50.50;39.00;;;;;2.58;100.00;103006.50;5083415;27;45835;-80
2023/01/24 06:02:37;;;;;;;;;53.75;38.25;;;;;2.56;100.00;102994.91;5078566;27;45512;-81
2023/01/24 06:05:03;;;;;;;;;54.50;40.25;;;;;2.51;100.00;103009.72;5092286;27;45444;-80
2023/01/24 06:07:29;;;;;;;;;58.75;42.75;;;;;2.49;100.00;102996.28;5099646;27;45358;-82
2023/01/24 06:09:54;;;;;;;;;43.75;36.75;;;;;2.54;100.00;103006.81;5092475;28;45210;-81
2023/01/24 06:12:20;;;;;;;;;56.00;41.00;;;;;2.54;100.00;103015.78;5074975;27;45704;-79
2023/01/24 06:14:45;;;;;;;;;49.00;33.75;;;;;2.51;100.00;103010.59;5086306;27;45466;-80
2023/01/24 06:17:11;;;;;;;;;56.75;44.00;;;;;2.54;100.00;103023.06;5089112;27;45362;-82
2023/01/24 06:19:36;;;;;;;;;53.25;43.50;;;;;2.51;100.00;103024.13;5078810;28;45153;-81
2023/01/24 06:22:14;;;;;;;;;62.25;43.75;;;;;2.54;100.00;103021.22;5089853;27;45489;-80
2023/01/24 06:24:39;;;;;;;;;56.00;41.25;;;;;2.55;100.00;103030.22;5079535;28;45664;-81
2023/01/24 06:27:05;;;;;;;;;55.00;42.50;;;;;2.55;100.00;103028.38;5081920;28;45126;-79
2023/01/24 06:29:31;;;;;;;;;57.75;41.25;;;;;2.52;100.00;103033.13;5102200;27;45516;-80
2023/01/24 06:32:20;;;;;;;;;59.50;47.00;;;;;2.46;100.00;103028.97;5090798;27;45035;-78
2023/01/24 06:34:58;;;;;;;;;29.75;19.00;;;;;2.44;100.00;103037.22;5089838;28;45416;-81
2023/01/24 06:37:47;;;;;;;;;48.75;40.25;;;;;2.47;100.00;103019.91;5069664;28;45454;-81
2023/01/24 06:40:15;;;;;;;;;62.75;44.25;;;;;2.45;100.00;103017.25;5089824;28;45354;-81
2023/01/24 06:42:41;;;;;;;;;65.00;46.50;;;;;2.47;100.00;103022.59;5093881;27;45409;-80
2023/01/24 06:45:08;;;;;;;;;62.75;41.25;;;;;2.45;100.00;103016.41;5067559;28;45426;-78
2023/01/24 06:47:33;;;;;;;;;31.50;25.50;;;;;2.46;100.00;103019.00;5090143;27;44828;-80
2023/01/24 06:49:59;;;;;;;;;60.00;45.00;;;;;2.49;100.00;103022.50;5107207;27;45029;-81
2023/01/24 06:52:25;;;;;;;;;52.75;39.25;;;;;2.46;100.00;103024.44;5089852;28;45684;-83
2023/01/24 06:54:50;;;;;;;;;59.50;43.00;;;;;2.43;100.00;103021.06;5092338;27;44832;-80
2023/01/24 06:57:15;;;;;;;;;56.50;39.00;;;;;2.48;100.00;103035.16;5095700;28;45322;-81
2023/01/24 06:59:53;;;;;;;;;63.25;47.25;;;;;2.50;100.00;103030.53;5096652;28;45700;-79
2023/01/24 07:02:18;;;;;;;;;60.50;46.25;;;;;2.52;100.00;103031.28;5092309;28;46521;-80
2023/01/24 07:04:44;;;;;;;;;62.75;41.25;;;;;2.56;100.00;103034.66;5090742;27;45925;-81
2023/01/24 07:07:09;;;;;;;;;61.00;46.00;;;;;2.58;100.00;103028.19;5088492;27;45641;-82
2023/01/24 07:09:35;;;;;;;;;75.25;53.00;;;;;2.55;100.00;103017.53;5070620;28;45874;-80
2023/01/24 07:12:00;;;;;;;;;57.00;43.25;;;;;2.63;100.00;103033.28;5070111;28;47020;-82
2023/01/24 07:14:26;;;;;;;;;67.25;46.25;;;;;2.65;100.00;103034.94;5088387;27;45461;-81
2023/01/24 07:16:55;;;;;;;;;60.25;42.50;;;;;2.68;100.00;103033.00;5089381;27;45661;-79
2023/01/24 07:19:22;;;;;;;;;58.50;44.25;;;;;2.67;100.00;103042.09;5084424;27;45266;-81
2023/01/24 07:21:57;;;;;;;;;48.75;37.50;;;;;2.70;100.00;103041.91;5088064;28;47452;-84
2023/01/24 07:24:29;;;;;;;;;56.50;37.00;;;;;2.59;100.00;103029.94;5105927;27;45379;-82
2023/01/24 07:26:55;;;;;;;;;62.50;45.00;;;;;2.58;100.00;103032.75;5083816;27;45599;-81
2023/01/24 07:29:22;;;;;;;;;60.00;48.50;;;;;2.65;100.00;103059.31;5094954;27;45619;-82
2023/01/24 07:31:48;;;;;;;;;52.50;42.00;;;;;2.65;100.00;103050.34;5087782;27;46069;-80
2023/01/24 07:34:17;;;;;;;;;56.75;41.75;;;;;2.65;100.00;103043.06;5089566;27;45499;-81
2023/01/24 07:36:46;;;;;;;;;56.25;38.25;;;;;2.65;100.00;103053.03;5070443;27;45452;-82
2023/01/24 07:39:12;;;;;;;;;54.00;43.75;;;;;2.63;100.00;103052.25;5088840;27;45858;-84
2023/01/24 07:41:38;;;;;;;;;58.75;44.75;;;;;2.51;100.00;103042.22;5093040;28;45575;-82
2023/01/24 07:44:05;;;;;;;;;55.50;43.00;;;;;2.59;100.00;103054.31;5090664;27;45376;-84
2023/01/24 07:46:35;;;;;;;;;56.75;43.00;;;;;2.63;100.00;103069.41;5075899;28;45305;-81
2023/01/24 07:49:01;;;;;;;;;63.50;48.00;;;;;2.61;100.00;103060.47;5073923;28;45946;-82
2023/01/24 07:51:26;;;;;;;;;45.75;40.25;;;;;2.57;100.00;103058.94;5071506;28;46969;-82
2023/01/24 07:53:52;;;;;;;;;59.75;42.00;;;;;2.61;100.00;103065.03;5094511;27;45731;-80
2023/01/24 07:56:18;;;;;;;;;62.50;41.25;;;;;2.56;100.00;103067.16;5084357;27;45753;-83
2023/01/24 07:58:43;;;;;;;;;62.00;41.50;;;;;2.54;100.00;103075.38;5075233;28;46112;-82
2023/01/24 08:01:15;;;;;;;;;60.75;45.75;;;;;2.56;100.00;103068.06;5091003;28;45912;-83
2023/01/24 08:03:40;;;;;;;;;57.25;44.25;;;;;2.65;100.00;103083.72;5071407;27;45024;-83
2023/01/24 08:06:06;;;;;;;;;49.50;39.00;;;;;2.55;100.00;103068.16;5070886;28;45705;-82
2023/01/24 08:08:32;;;;;;;;;58.75;44.25;;;;;2.65;100.00;103089.13;5080336;28;45549;-83
2023/01/24 08:11:02;;;;;;;;;48.25;38.75;;;;;2.50;100.00;103063.03;5089320;28;47437;-84
2023/01/24 08:13:28;;;;;;;;;55.75;42.00;;;;;2.54;100.00;103075.38;5095250;27;45767;-83
2023/01/24 08:15:53;;;;;;;;;39.75;37.00;;;;;2.64;100.00;103092.78;5083700;27;45348;-82
2023/01/24 08:18:19;;;;;;;;;63.00;49.00;;;;;2.43;100.00;103067.97;5085456;28;45407;-84
2023/01/24 08:20:45;;;;;;;;;58.00;44.00;;;;;2.63;100.00;103095.59;5070902;28;46682;-83
2023/01/24 08:23:11;;;;;;;;;57.50;43.50;;;;;2.48;100.00;103073.06;5089964;28;45627;-83
2023/01/24 08:25:36;;;;;;;;;65.75;43.50;;;;;2.60;100.00;103096.66;5089209;28;45442;-82
2023/01/24 08:28:02;;;;;;;;;62.00;44.25;;;;;2.61;100.00;103100.25;5069789;28;45526;-82
2023/01/24 08:30:27;;;;;;;;;58.50;42.50;;;;;2.62;100.00;103094.75;5088824;28;45997;-82
2023/01/24 08:33:01;;;;;;;;;47.50;33.00;;;;;2.59;100.00;103092.22;5069324;28;45440;-82
2023/01/24 08:35:26;;;;;;;;;52.50;42.75;;;;;2.60;100.00;103096.66;5088829;27;44957;-82
2023/01/24 08:37:51;;;;;;;;;57.00;40.25;;;;;2.65;100.00;103094.53;5077298;27;46532;-82
2023/01/24 08:40:18;;;;;;;;;51.25;42.50;;;;;2.59;100.00;103089.53;5094281;27;45643;-82
2023/01/24 08:42:45;;;;;;;;;61.50;43.00;;;;;2.68;100.00;103104.31;5071867;28;44804;-82
2023/01/24 08:45:11;;;;;;;;;60.25;43.00;;;;;2.73;100.00;103118.44;5067907;28;46016;-81
2023/01/24 08:47:36;;;;;;;;;56.00;44.00;;;;;2.57;100.00;103091.44;5080198;28;45405;-83
2023/01/24 08:50:02;;;;;;;;;60.75;45.00;;;;;2.71;100.00;103105.94;5072264;28;46566;-82
2023/01/24 08:52:28;;;;;;;;;63.75;42.50;;;;;2.77;100.00;103109.16;5086064;28;45341;-83
2023/01/24 08:54:54;;;;;;;;;43.75;40.25;;;;;2.70;100.00;103096.09;5072520;28;45438;-83
2023/01/24 08:57:19;;;;;;;;;57.25;42.75;;;;;2.77;100.00;103106.44;5097354;27;45358;-83
2023/01/24 08:59:45;;;;;;;;;55.75;43.75;;;;;2.87;100.00;103119.38;5069184;28;47890;-85
2023/01/24 09:02:13;;;;;;;;;46.25;35.75;;;;;2.79;100.00;103111.75;5087334;28;45425;-82
2023/01/24 09:04:39;;;;;;;;;52.75;37.75;;;;;2.76;100.00;103101.97;5089278;27;44845;-81
2023/01/24 09:07:06;;;;;;;;;63.75;41.25;;;;;2.89;100.00;103128.28;5076498;27;45441;-81
2023/01/24 09:09:31;;;;;;;;;43.50;33.00;;;;;2.92;100.00;103126.25;5098300;27;45520;-81
2023/01/24 09:11:57;;;;;;;;;52.75;43.25;;;;;2.96;100.00;103133.22;5081388;27;45469;-81
2023/01/24 09:14:22;;;;;;;;;51.75;41.25;;;;;2.98;100.00;103128.56;5086766;27;45780;-82
2023/01/24 09:16:48;;;;;;;;;57.50;42.00;;;;;2.99;100.00;103129.41;5082172;27;45160;-82
2023/01/24 09:19:14;;;;;;;;;52.50;39.50;;;;;2.97;100.00;103121.38;5066723;27;47246;-81
2023/01/24 09:21:39;;;;;;;;;49.25;39.25;;;;;3.03;100.00;103127.41;5086983;27;45056;-83
2023/01/24 09:24:05;;;;;;;;;53.50;40.50;;;;;3.07;100.00;103123.50;5088797;28;44789;-80
2023/01/24 09:26:31;;;;;;;;;51.00;38.25;;;;;3.10;100.00;103126.00;5092240;27;45329;-83
2023/01/24 09:28:56;;;;;;;;;46.75;37.50;;;;;3.11;100.00;103117.75;5098488;27;45541;-81
2023/01/24 09:31:22;;;;;;;;;46.50;37.25;;;;;3.20;100.00;103131.69;5068278;28;45367;-81
2023/01/24 09:33:47;;;;;;;;;59.00;40.50;;;;;3.11;100.00;103120.47;5051835;28;45408;-81
2023/01/24 09:36:12;;;;;;;;;52.00;37.50;;;;;3.12;100.00;103124.94;5087867;28;45522;-79
2023/01/24 09:38:38;;;;;;;;;56.00;44.00;;;;;3.22;100.00;103127.91;5075760;27;46916;-81
2023/01/24 09:41:10;;;;;;;;;55.00;41.50;;;;;3.25;100.00;103127.72;5080637;28;44808;-82
2023/01/24 09:43:56;;;;;;;;;58.50;42.25;;;;;3.29;100.00;103131.06;5089609;28;45415;-82
2023/01/24 09:46:31;;;;;;;;;65.00;46.25;;;;;3.39;100.00;103132.22;5046281;28;46086;-80
2023/01/24 09:49:15;;;;;;;;;66.50;45.75;;;;;3.50;100.00;103135.09;5092589;27;46694;-82
2023/01/24 09:51:50;;;;;;;;;57.50;42.50;;;;;3.45;100.00;103131.78;5105832;27;45380;-83
2023/01/24 09:54:54;;;;;;;;;57.75;43.25;;;;;3.57;100.00;103138.25;5079814;28;45460;-83
2023/01/24 09:57:44;;;;;;;;;46.25;39.25;;;;;3.59;100.00;103133.56;5078124;28;45893;-84
2023/01/24 10:00:22;;;;;;;;;53.00;40.50;;;;;3.60;100.00;103142.59;5040069;28;47166;-82
2023/01/24 10:02:48;;;;;;;;;55.75;44.25;;;;;3.60;100.00;103140.75;5090216;28;45381;-85
2023/01/24 10:05:16;;;;;;;;;51.00;40.50;;;;;3.59;100.00;103154.41;5071624;28;45427;-82
2023/01/24 10:07:51;;;;;;;;;60.25;41.25;;;;;3.56;100.00;103155.47;5085090;28;45558;-83
2023/01/24 10:10:31;;;;;;;;;60.25;43.75;;;;;3.53;100.00;103151.16;5072709;28;47070;-85
2023/01/24 10:13:27;;;;;;;;;38.25;32.00;;;;;3.51;100.00;103157.66;5071343;27;45876;-83
2023/01/24 10:15:56;;;;;;;;;53.75;37.75;;;;;3.51;100.00;103157.66;5070894;28;45530;-82
2023/01/24 10:18:37;;;;;;;;;63.25;49.00;;;;;3.48;100.00;103155.13;5088535;28;45596;-82
2023/01/24 10:21:32;;;;;;;;;53.50;38.50;;;;;3.55;100.00;103153.75;5055783;28;47408;-84
2023/01/24 10:24:06;;;;;;;;;43.50;40.00;;;;;3.54;100.00;103135.72;5074317;28;45311;-82
2023/01/24 10:26:42;;;;;;;;;54.00;43.25;;;;;3.66;100.00;103148.47;5090800;27;45331;-82
2023/01/24 10:29:21;;;;;;;;;54.25;40.75;;;;;3.75;100.00;103156.97;5084675;27;44811;-83
2023/01/24 10:31:57;;;;;;;;;56.25;41.25;;;;;3.79;100.00;103151.22;5089921;28;46330;-86
2023/01/24 10:34:32;;;;;;;;;45.50;38.25;;;;;3.75;100.00;103146.97;5090046;28;45405;-81
2023/01/24 10:37:10;;;;;;;;;49.25;38.50;;;;;3.74;100.00;103152.50;5075985;27;45191;-83
2023/01/24 10:39:37;;;;;;;;;50.25;39.50;;;;;3.72;100.00;103144.47;5093458;27;45731;-81
2023/01/24 10:42:16;;;;;;;;;61.50;42.00;;;;;3.69;100.00;103139.25;5075867;28;47832;-85
2023/01/24 10:44:42;;;;;;;;;54.75;39.00;;;;;3.63;100.00;103128.81;5082783;27;45638;-83
2023/01/24 10:47:39;;;;;;;;;59.25;43.25;;;;;3.80;100.00;103141.22;5093720;27;45428;-84
2023/01/24 10:50:09;;;;;;;;;49.25;33.50;;;;;3.75;100.00;103132.53;5066484;28;45434;-84
2023/01/24 10:52:35;;;;;;;;;56.50;41.25;;;;;3.71;100.00;103115.59;5080906;27;47714;-83
2023/01/24 10:55:05;;;;;;;;;53.75;42.50;;;;;3.74;100.00;103115.38;5085535;27;45458;-83
2023/01/24 10:57:41;;;;;;;;;40.00;34.00;;;;;3.88;100.00;103128.00;5066707;28;45548;-84
2023/01/24 11:00:30;;;;;;;;;54.50;38.00;;;;;3.86;100.00;103113.66;5067079;28;46467;-83
2023/01/24 11:03:04;;;;;;;;;65.25;45.00;;;;;3.93;100.00;103125.84;5091251;27;45536;-82
2023/01/24 11:05:43;;;;;;;;;59.00;41.50;;;;;3.97;100.00;103129.22;5075941;28;45264;-84
2023/01/24 11:08:22;;;;;;;;;40.50;31.00;;;;;3.94;100.00;103126.69;5085503;28;45162;-82
2023/01/24 11:10:53;;;;;;;;;58.50;43.75;;;;;3.94;100.00;103118.56;5086446;28;45446;-83
2023/01/24 11:13:27;;;;;;;;;49.25;39.25;;;;;3.97;100.00;103113.78;5090445;28;46214;-84
2023/01/24 11:16:00;;;;;;;;;47.50;38.25;;;;;4.06;100.00;103115.00;5083020;27;45031;-83
2023/01/24 11:18:27;;;;;;;;;57.50;42.25;;;;;4.02;100.00;103114.34;5062434;28;45348;-83
2023/01/24 11:21:12;;;;;;;;;46.00;38.50;;;;;4.15;100.00;103111.63;5096349;27;45623;-83
2023/01/24 11:23:42;;;;;;;;;48.25;38.25;;;;;4.09;100.00;103086.75;5094677;27;45473;-84
2023/01/24 11:26:25;;;;;;;;;52.75;38.00;;;;;4.20;100.00;103095.00;5088039;27;45299;-83
2023/01/24 11:29:08;;;;;;;;;52.50;37.00;;;;;4.26;100.00;103102.72;5076329;28;44847;-83
2023/01/24 11:31:42;;;;;;;;;44.25;35.50;;;;;4.20;100.00;103095.00;5085101;28;45588;-83
2023/01/24 11:34:45;;;;;;;;;53.50;36.00;;;;;4.35;100.00;103096.63;5078365;28;47062;-85
2023/01/24 11:37:38;;;;;;;;;48.50;39.25;;;;;4.37;100.00;103099.22;5087257;27;44746;-84
2023/01/24 11:40:22;;;;;;;;;43.00;34.75;;;;;4.35;100.00;103102.06;5086263;28;44978;-84
2023/01/24 11:43:30;;;;;;;;;45.50;36.50;;;;;4.31;100.00;103092.41;5083220;27;45752;-84
2023/01/24 11:46:16;;;;;;;;;53.25;37.50;;;;;4.33;100.00;103082.28;5061325;28;45541;-85
2023/01/24 11:49:00;;;;;;;;;52.00;37.00;;;;;4.31;100.00;103075.22;5081077;28;45358;-84
2023/01/24 11:51:37;;;;;;;;;55.25;39.00;;;;;4.38;100.00;103088.25;5082218;28;45409;-81
2023/01/24 11:54:37;;;;;;;;;39.25;35.75;;;;;4.28;100.00;103072.72;5069421;27;46437;-82
2023/01/24 11:57:10;;;;;;;;;40.50;32.25;;;;;4.37;100.00;103077.50;5079942;27;47225;-82